Time;durP1;ratioP1;P1;durP2;ratioP2;P2;SDS_P1;SDS_P2;PMS_P1;PMS_P2;Temp;Humidity;BMP_temperature;BMP_pressure;BME280_temperature;BME280_humidity;BME280_pressure;Samples;Min_cycle;Max_cycle;Signal;HPM_P1;HPM_P2
2022/04/01 00:02:01;;;;;;;;;;;1.70;99.90;;;;;;8415862;28;19939;-68
2022/04/01 00:06:02;;;;;;;;;;;1.70;99.90;;;;;;8416503;28;19985;-68
2022/04/01 00:10:04;;;;;;;;;;;1.60;99.90;;;;;;8409120;28;19925;-68
2022/04/01 00:14:06;;;;;;;;;;;1.60;99.90;;;;;;8415287;28;19967;-68
2022/04/01 00:18:08;;;;;;;;;;;1.60;99.90;;;;;;8417134;28;20350;-68
2022/04/01 00:22:11;;;;;;;;;;;1.60;99.90;;;;;;8414307;28;19925;-68
2022/04/01 00:26:12;;;;;;;;;;;1.50;99.90;;;;;;8414987;28;20374;-68
2022/04/01 00:30:14;;;;;;;;;;;1.50;99.90;;;;;;8419071;28;19928;-68
2022/04/01 00:34:16;;;;;;;;;;;1.50;99.90;;;;;;8401473;28;19932;-68
2022/04/01 00:38:17;;;;;;;;;;;1.50;99.90;;;;;;8398016;28;19943;-68
2022/04/01 00:42:19;;;;;;;;;;;1.50;99.90;;;;;;8413937;28;19924;-68
2022/04/01 00:46:21;;;;;;;;;;;1.50;99.90;;;;;;8395141;28;20289;-68
2022/04/01 00:50:23;;;;;;;;;;;1.50;99.90;;;;;;8399568;28;19924;-68
2022/04/01 00:54:24;;;;;;;;;;;1.50;99.90;;;;;;8417814;28;20283;-68
2022/04/01 00:58:27;;;;;;;;;;;1.50;99.90;;;;;;8412562;28;19935;-68
2022/04/01 01:02:28;;;;;;;;;;;1.40;99.90;;;;;;8414505;28;20405;-68
2022/04/01 01:06:50;;;;;;;;;;;1.40;99.90;;;;;;8408855;28;19977;-69
2022/04/01 01:10:51;;;;;;;;;;;1.40;99.90;;;;;;8410012;28;19925;-68
2022/04/01 01:14:53;;;;;;;;;;;1.40;99.90;;;;;;8393220;28;20260;-68
2022/04/01 01:19:05;;;;;;;;;;;1.40;99.90;;;;;;8412713;28;19924;-68
2022/04/01 01:23:07;;;;;;;;;;;1.40;99.90;;;;;;8398331;28;19932;-68
2022/04/01 01:27:09;;;;;;;;;;;1.30;99.90;;;;;;8417133;28;20238;-68
2022/04/01 01:31:10;;;;;;;;;;;1.30;99.90;;;;;;8397072;28;19931;-68
2022/04/01 01:35:13;;;;;;;;;;;1.30;99.90;;;;;;8417611;28;19930;-68
2022/04/01 01:39:14;;;;;;;;;;;1.30;99.90;;;;;;8395124;28;20332;-68
2022/04/01 01:43:16;;;;;;;;;;;1.20;99.90;;;;;;8395194;28;19967;-68
2022/04/01 01:47:18;;;;;;;;;;;1.20;99.90;;;;;;8417561;28;19935;-68
2022/04/01 01:55:40;;;;;;;;;;;1.20;99.90;;;;;;8414200;28;19947;-68
2022/04/01 01:59:42;;;;;;;;;;;1.10;99.90;;;;;;8396217;28;19991;-68
2022/04/01 02:03:44;;;;;;;;;;;1.10;99.90;;;;;;8397706;28;19924;-69
2022/04/01 02:07:47;;;;;;;;;;;1.10;99.90;;;;;;8418704;28;19928;-69
2022/04/01 02:11:48;;;;;;;;;;;1.10;99.90;;;;;;8413611;28;19978;-68
2022/04/01 02:15:51;;;;;;;;;;;1.10;99.90;;;;;;8415618;28;19924;-68
2022/04/01 02:19:52;;;;;;;;;;;1.00;99.90;;;;;;8414811;28;19924;-68
2022/04/01 02:23:54;;;;;;;;;;;1.00;99.90;;;;;;8399770;28;20222;-68
2022/04/01 02:27:56;;;;;;;;;;;1.00;99.90;;;;;;8413511;28;20286;-69
2022/04/01 02:31:58;;;;;;;;;;;1.00;99.90;;;;;;8417967;28;20350;-69
2022/04/01 02:36:02;;;;;;;;;;;1.00;99.90;;;;;;8422866;28;20430;-68
2022/04/01 02:40:04;;;;;;;;;;;1.00;99.90;;;;;;8423131;28;20371;-69
2022/04/01 02:44:08;;;;;;;;;;;1.00;99.90;;;;;;8422601;28;20331;-68
2022/04/01 02:48:10;;;;;;;;;;;1.10;99.90;;;;;;8412272;28;20060;-68
2022/04/01 02:52:13;;;;;;;;;;;1.10;99.90;;;;;;8425580;28;20001;-68
2022/04/01 02:56:15;;;;;;;;;;;1.00;99.90;;;;;;8421209;28;19931;-69
2022/04/01 03:00:21;;;;;;;;;;;1.00;99.90;;;;;;8420500;28;20335;-68
2022/04/01 03:04:23;;;;;;;;;;;1.00;99.90;;;;;;8419606;28;20037;-68
2022/04/01 03:08:26;;;;;;;;;;;0.90;99.90;;;;;;8400514;28;19932;-68
2022/04/01 03:12:28;;;;;;;;;;;1.00;99.90;;;;;;8413859;28;20046;-68
2022/04/01 03:16:30;;;;;;;;;;;1.00;99.90;;;;;;8424775;28;19924;-68
2022/04/01 03:20:35;;;;;;;;;;;0.90;99.90;;;;;;8430279;28;19924;-69
2022/04/01 03:24:37;;;;;;;;;;;0.90;99.90;;;;;;8418130;28;19931;-69
2022/04/01 03:28:39;;;;;;;;;;;1.00;99.90;;;;;;8417803;28;19944;-69
2022/04/01 03:32:42;;;;;;;;;;;0.90;99.90;;;;;;8415226;28;19931;-69
2022/04/01 03:36:44;;;;;;;;;;;0.90;99.90;;;;;;8417918;28;19931;-69
2022/04/01 03:40:47;;;;;;;;;;;0.90;99.90;;;;;;8414986;28;20274;-69
2022/04/01 03:44:49;;;;;;;;;;;0.90;99.90;;;;;;8418455;28;19938;-69
2022/04/01 03:49:03;;;;;;;;;;;1.00;99.90;;;;;;8419989;28;19951;-69
2022/04/01 03:53:05;;;;;;;;;;;1.00;99.90;;;;;;8419030;28;19928;-69
2022/04/01 03:57:08;;;;;;;;;;;1.00;99.90;;;;;;8404634;28;20452;-68
2022/04/01 04:01:11;;;;;;;;;;;1.00;99.90;;;;;;8396469;28;20291;-69
2022/04/01 04:05:13;;;;;;;;;;;1.00;99.90;;;;;;8415600;28;19959;-69
2022/04/01 04:09:16;;;;;;;;;;;1.00;99.90;;;;;;8395181;28;19925;-69
2022/04/01 04:13:19;;;;;;;;;;;1.00;99.90;;;;;;8418883;28;19951;-69
2022/04/01 04:17:36;;;;;;;;;;;0.90;99.90;;;;;;8419834;28;20136;-69
2022/04/01 04:21:40;;;;;;;;;;;0.90;99.90;;;;;;8401410;28;20417;-69
2022/04/01 04:25:50;;;;;;;;;;;0.90;99.90;;;;;;8423373;28;19932;-68
2022/04/01 04:29:52;;;;;;;;;;;0.90;99.90;;;;;;8418915;28;19928;-69
2022/04/01 04:33:55;;;;;;;;;;;0.90;99.90;;;;;;8423884;28;19935;-69
2022/04/01 04:38:06;;;;;;;;;;;1.00;99.90;;;;;;8423223;28;19936;-69
2022/04/01 04:42:09;;;;;;;;;;;1.00;99.90;;;;;;8417916;28;19959;-68
2022/04/01 04:46:12;;;;;;;;;;;1.00;99.90;;;;;;8414992;28;19924;-68
2022/04/01 04:50:15;;;;;;;;;;;1.00;99.90;;;;;;8417755;28;19924;-69
2022/04/01 04:54:18;;;;;;;;;;;1.00;99.90;;;;;;8397301;28;19924;-69
2022/04/01 04:58:21;;;;;;;;;;;1.00;99.90;;;;;;8420452;28;19936;-69
2022/04/01 05:02:39;;;;;;;;;;;1.00;99.90;;;;;;8420450;28;19935;-69
2022/04/01 05:06:49;;;;;;;;;;;1.00;99.90;;;;;;8399536;28;19924;-68
2022/04/01 05:10:53;;;;;;;;;;;1.00;99.90;;;;;;8415335;28;19940;-69
2022/04/01 05:15:05;;;;;;;;;;;1.00;99.90;;;;;;8416009;28;19927;-69
2022/04/01 05:19:09;;;;;;;;;;;1.00;99.90;;;;;;8412186;28;20272;-69
2022/04/01 05:23:12;;;;;;;;;;;1.00;99.90;;;;;;8416823;28;20391;-69
2022/04/01 05:27:31;;;;;;;;;;;1.00;99.90;;;;;;8417584;28;19935;-69
2022/04/01 05:31:37;;;;;;;;;;;1.00;99.90;;;;;;8415354;28;19932;-69
2022/04/01 05:35:40;;;;;;;;;;;1.00;99.90;;;;;;8412223;28;20130;-69
2022/04/01 05:39:46;;;;;;;;;;;1.00;99.90;;;;;;8397458;28;20439;-69
2022/04/01 05:43:48;;;;;;;;;;;1.00;99.90;;;;;;8400068;28;19924;-69
2022/04/01 05:47:50;;;;;;;;;;;1.10;99.90;;;;;;8416524;28;20359;-69
2022/04/01 05:51:52;;;;;;;;;;;1.10;99.90;;;;;;8420007;28;19924;-68
2022/04/01 05:55:54;;;;;;;;;;;1.10;99.90;;;;;;8421347;28;19924;-68
2022/04/01 05:59:59;;;;;;;;;;;1.10;99.90;;;;;;8422569;28;19937;-68
2022/04/01 06:04:09;;;;;;;;;;;1.10;99.90;;;;;;8404394;28;19943;-69
2022/04/01 06:08:38;;;;;;;;;;;1.10;99.90;;;;;;8420306;28;20646;-68
2022/04/01 06:12:45;;;;;;;;;;;1.10;99.90;;;;;;8381424;28;19928;-69
2022/04/01 06:16:50;;;;;;;;;;;1.20;99.90;;;;;;8402274;28;19931;-68
2022/04/01 06:20:53;;;;;;;;;;;1.20;99.90;;;;;;8405564;28;20016;-67
2022/04/01 06:25:10;;;;;;;;;;;1.20;99.90;;;;;;8427662;28;20031;-67
2022/04/01 06:29:22;;;;;;;;;;;1.20;99.90;;;;;;8400785;28;19924;-67
2022/04/01 06:33:29;;;;;;;;;;;1.30;99.90;;;;;;8418993;28;19947;-67
2022/04/01 06:37:36;;;;;;;;;;;1.30;99.90;;;;;;8419397;28;20306;-67
2022/04/01 06:41:43;;;;;;;;;;;1.40;99.90;;;;;;8405308;28;19939;-68
2022/04/01 06:45:44;;;;;;;;;;;1.40;99.90;;;;;;8393007;28;19943;-68
2022/04/01 06:49:46;;;;;;;;;;;1.50;99.90;;;;;;8394517;28;19925;-67
2022/04/01 06:53:48;;;;;;;;;;;1.50;99.90;;;;;;8395591;28;19924;-68
2022/04/01 06:57:50;;;;;;;;;;;1.60;99.90;;;;;;8406883;28;20498;-68
2022/04/01 07:01:52;;;;;;;;;;;1.80;99.90;;;;;;8395591;28;19931;-68
2022/04/01 07:05:53;;;;;;;;;;;1.90;99.90;;;;;;8377850;28;19932;-68
2022/04/01 07:09:55;;;;;;;;;;;1.90;99.90;;;;;;8393337;28;19929;-68
2022/04/01 07:13:57;;;;;;;;;;;2.00;99.90;;;;;;8399139;28;19928;-67
2022/04/01 07:17:59;;;;;;;;;;;2.00;99.90;;;;;;8398942;28;19924;-67
2022/04/01 07:22:01;;;;;;;;;;;2.20;99.90;;;;;;8398318;28;19932;-68
2022/04/01 07:26:02;;;;;;;;;;;2.40;99.90;;;;;;8378352;28;19931;-68
2022/04/01 07:30:08;;;;;;;;;;;2.60;99.90;;;;;;8398856;28;19928;-68
2022/04/01 07:34:10;;;;;;;;;;;2.80;99.90;;;;;;8398118;28;19929;-68
2022/04/01 07:38:11;;;;;;;;;;;3.00;99.90;;;;;;8375596;28;20399;-67
2022/04/01 07:42:13;;;;;;;;;;;3.20;99.90;;;;;;8396218;28;19928;-68
2022/04/01 07:46:14;;;;;;;;;;;3.30;99.90;;;;;;8397265;28;19933;-68
2022/04/01 07:50:17;;;;;;;;;;;3.40;99.90;;;;;;8402827;28;19924;-68
2022/04/01 07:54:19;;;;;;;;;;;3.50;99.90;;;;;;8396494;28;19972;-68
2022/04/01 07:58:21;;;;;;;;;;;3.70;99.90;;;;;;8394280;28;19944;-67
2022/04/01 08:02:27;;;;;;;;;;;3.90;99.90;;;;;;8393224;28;20376;-68
2022/04/01 08:06:30;;;;;;;;;;;4.10;99.90;;;;;;8381300;28;19936;-67
2022/04/01 08:10:32;;;;;;;;;;;4.30;99.90;;;;;;8394572;28;19935;-68
2022/04/01 08:14:36;;;;;;;;;;;4.50;99.90;;;;;;8395654;28;19925;-67
2022/04/01 08:18:38;;;;;;;;;;;4.60;99.90;;;;;;8380941;28;19937;-67
2022/04/01 08:22:40;;;;;;;;;;;4.70;99.90;;;;;;8378513;28;19929;-68
2022/04/01 08:26:41;;;;;;;;;;;4.80;99.90;;;;;;8376984;28;19947;-67
2022/04/01 08:30:43;;;;;;;;;;;4.80;99.90;;;;;;8395248;28;19947;-67
2022/04/01 08:34:45;;;;;;;;;;;4.70;99.90;;;;;;8394322;28;20454;-67
2022/04/01 08:38:46;;;;;;;;;;;4.60;99.90;;;;;;8395177;28;19931;-67
2022/04/01 08:42:48;;;;;;;;;;;4.60;99.90;;;;;;8385557;28;19928;-67
2022/04/01 08:46:50;;;;;;;;;;;4.60;99.90;;;;;;8377385;28;19936;-67
2022/04/01 08:50:51;;;;;;;;;;;4.50;99.90;;;;;;8391995;28;19932;-67
2022/04/01 08:54:53;;;;;;;;;;;4.40;99.90;;;;;;8374825;28;19924;-67
2022/04/01 08:58:55;;;;;;;;;;;4.30;99.90;;;;;;8404387;28;19935;-67
2022/04/01 09:03:01;;;;;;;;;;;4.20;99.90;;;;;;8394777;28;20023;-67
2022/04/01 09:07:12;;;;;;;;;;;4.30;99.90;;;;;;8392960;28;19932;-67
2022/04/01 09:11:16;;;;;;;;;;;4.40;99.90;;;;;;8395126;28;19931;-68
2022/04/01 09:15:21;;;;;;;;;;;4.70;99.90;;;;;;8394473;28;20304;-67
2022/04/01 09:19:33;;;;;;;;;;;5.00;99.90;;;;;;8391596;28;21525;-67
2022/04/01 09:23:35;;;;;;;;;;;5.20;99.90;;;;;;8376335;28;19931;-67
2022/04/01 09:27:46;;;;;;;3.38;1.30;;;5.20;99.90;;;;;;8377061;28;19939;-67
2022/04/01 09:31:55;;;;;;;4.53;1.45;;;5.30;99.90;;;;;;8391585;28;20048;-67
2022/04/01 09:36:03;;;;;;;3.58;1.67;;;5.50;99.90;;;;;;8390183;28;20049;-68
2022/04/01 09:40:05;;;;;;;4.13;1.40;;;5.60;99.90;;;;;;8391622;28;20365;-68
2022/04/01 09:44:13;;;;;;;3.90;1.45;;;5.70;99.90;;;;;;8377206;28;20045;-68
2022/04/01 09:48:20;;;;;;;2.83;1.42;;;5.90;99.90;;;;;;8391585;28;20102;-68
2022/04/01 09:52:25;;;;;;;3.53;1.40;;;6.00;99.90;;;;;;8391765;28;20044;-68
2022/04/01 09:56:45;;;;;;;4.60;1.98;;;5.90;99.90;;;;;;8392145;28;20445;-68
2022/04/01 10:00:47;;;;;;;4.88;2.08;;;5.80;99.90;;;;;;8394060;28;20045;-68
2022/04/01 10:04:50;;;;;;;4.15;1.90;;;5.80;99.90;;;;;;8390532;28;20056;-68
2022/04/01 10:08:52;;;;;;;4.93;2.17;;;5.60;99.90;;;;;;8389197;28;20052;-68
2022/04/01 10:13:00;;;;;;;4.68;2.10;;;5.50;99.90;;;;;;8373897;28;20139;-68
2022/04/01 10:17:04;;;;;;;7.25;2.00;;;5.50;99.90;;;;;;8389629;28;20048;-68
2022/04/01 10:21:06;;;;;;;;;;;5.60;99.90;;;;;;8386026;28;20040;-68
2022/04/01 10:25:14;;;;;;;;;;;5.60;99.90;;;;;;8403297;28;19958;-68
2022/04/01 10:29:16;;;;;;;;;;;5.70;99.90;;;;;;8388301;28;19927;-68
2022/04/01 10:33:25;;;;;;;;;;;5.80;99.90;;;;;;8382130;28;19928;-68
2022/04/01 10:37:30;;;;;;;;;;;5.70;99.90;;;;;;8382807;28;19927;-68
2022/04/01 10:41:32;;;;;;;;;;;5.80;99.90;;;;;;8388865;28;19920;-67
2022/04/01 10:45:33;;;;;;;;;;;5.80;99.90;;;;;;8382875;28;19921;-67
2022/04/01 10:53:56;;;;;;;;;;;5.90;99.90;;;;;;8389986;28;20216;-67
2022/04/01 10:58:06;;;;;;;;;;;5.70;99.90;;;;;;8393529;28;19928;-67
2022/04/01 11:02:10;;;;;;;;;;;5.70;99.90;;;;;;8392931;28;20592;-67
2022/04/01 11:06:21;;;;;;;;;;;5.60;99.90;;;;;;8392242;28;19951;-68
2022/04/01 11:10:23;;;;;;;;;;;5.70;99.90;;;;;;8394497;28;19935;-67
2022/04/01 11:14:25;;;;;;;;;;;5.90;99.90;;;;;;8392176;28;19924;-68
2022/04/01 11:18:26;;;;;;;;;;;6.00;99.90;;;;;;8390520;28;19921;-68
2022/04/01 11:22:43;;;;;;;;;;;6.10;99.90;;;;;;8396956;28;20367;-68
2022/04/01 11:26:45;;;;;;;;;;;6.00;99.90;;;;;;8394759;28;20288;-68
2022/04/01 11:30:50;;;;;;;;;;;6.00;99.90;;;;;;8396301;28;19924;-68
2022/04/01 11:34:55;;;;;;;;;;;6.10;99.90;;;;;;8400256;28;19973;-68
2022/04/01 11:38:58;;;;;;;;;;;6.20;99.90;;;;;;8397287;28;20038;-68
2022/04/01 11:43:09;;;;;;;;;;;6.00;99.90;;;;;;8397391;28;19924;-67
2022/04/01 11:47:11;;;;;;;;;;;5.90;99.90;;;;;;8396126;28;19931;-67
2022/04/01 11:51:14;;;;;;;;;;;5.90;99.90;;;;;;8392394;28;20710;-68
2022/04/01 11:55:20;;;;;;;;;;;6.10;99.90;;;;;;8399777;28;20303;-68
2022/04/01 11:59:24;;;;;;;;;;;6.30;99.90;;;;;;8389302;28;20628;-68
2022/04/01 12:03:25;;;;;;;;;;;6.30;99.90;;;;;;8396365;28;19962;-68
2022/04/01 12:11:48;;;;;;;;;;;6.20;99.90;;;;;;8395114;28;19927;-68
2022/04/01 12:15:52;;;;;;;;;;;6.10;99.90;;;;;;8394075;28;20268;-68
2022/04/01 12:20:09;;;;;;;;;;;6.00;99.90;;;;;;8398167;28;19927;-68
2022/04/01 12:24:30;;;;;;;;;;;6.20;99.90;;;;;;8404757;28;19935;-68
2022/04/01 12:28:35;;;;;;;;;;;6.20;99.90;;;;;;8394029;28;20620;-68
2022/04/01 12:32:37;;;;;;;;;;;6.10;99.90;;;;;;8396478;28;19920;-68
2022/04/01 12:36:39;;;;;;;;;;;6.10;99.90;;;;;;8379501;28;19935;-68
2022/04/01 12:40:43;;;;;;;;;;;6.10;99.90;;;;;;8394264;28;19924;-68
2022/04/01 12:44:45;;;;;;;;;;;6.60;99.90;;;;;;8393467;28;19920;-67
2022/04/01 12:48:47;;;;;;;;;;;7.00;99.90;;;;;;8394920;28;19992;-68
2022/04/01 12:52:49;;;;;;;;;;;7.10;99.90;;;;;;8393853;28;19924;-68
2022/04/01 12:56:51;;;;;;;;;;;7.30;99.90;;;;;;8392743;28;19928;-68
2022/04/01 13:01:04;;;;;;;;;;;7.20;99.90;;;;;;8385145;28;19921;-68
2022/04/01 13:05:11;;;;;;;;;;;7.20;99.90;;;;;;8391470;28;19974;-68
2022/04/01 13:09:14;;;;;;;;;;;7.20;99.90;;;;;;8392818;28;20229;-68
2022/04/01 13:13:17;;;;;;;;;;;7.40;99.90;;;;;;8388722;28;19929;-68
2022/04/01 13:17:18;;;;;;;;;;;7.40;99.90;;;;;;8402496;28;19924;-68
2022/04/01 13:21:22;;;;;;;;;;;7.10;99.90;;;;;;8389758;28;19928;-68
2022/04/01 13:25:25;;;;;;;;;;;6.90;99.90;;;;;;8389743;28;19928;-68
2022/04/01 13:29:27;;;;;;;;;;;6.80;99.90;;;;;;8387878;28;20007;-68
2022/04/01 13:33:28;;;;;;;;;;;7.00;99.90;;;;;;8389057;28;19920;-68
2022/04/01 13:37:30;;;;;;;;;;;7.40;99.90;;;;;;8368280;28;20271;-67
2022/04/01 13:41:31;;;;;;;;;;;7.60;99.90;;;;;;8389451;28;19920;-68
2022/04/01 13:45:37;;;;;;;;;;;7.50;99.90;;;;;;8402521;28;20671;-68
2022/04/01 13:49:39;;;;;;;;;;;7.40;99.90;;;;;;8402587;28;20375;-68
2022/04/01 13:53:41;;;;;;;;;;;7.30;99.90;;;;;;8374915;28;19928;-68
2022/04/01 13:57:46;;;;;;;;;;;7.20;99.90;;;;;;8388821;28;20321;-68
2022/04/01 14:01:49;;;;;;;;;;;7.30;99.90;;;;;;8391687;28;20463;-68
2022/04/01 14:05:53;;;;;;;;;;;7.10;99.90;;;;;;8386008;28;19928;-68
2022/04/01 14:09:55;;;;;;;;;;;6.90;99.90;;;;;;8392353;28;19928;-68
2022/04/01 14:14:03;;;;;;;;;;;6.60;99.90;;;;;;8395183;28;21077;-68
2022/04/01 14:18:05;;;;;;;;;;;6.70;99.90;;;;;;8395800;28;20361;-67
2022/04/01 14:22:07;;;;;;;;;;;7.20;99.90;;;;;;8395473;28;19924;-67
2022/04/01 14:26:09;;;;;;;;;;;7.70;99.90;;;;;;8380305;28;19966;-68
2022/04/01 14:30:18;;;;;;;;;;;7.80;99.90;;;;;;8398874;28;20343;-68
2022/04/01 14:34:19;;;;;;;;;;;7.70;99.90;;;;;;8396694;28;20284;-68
2022/04/01 14:38:21;;;;;;;;;;;7.60;99.90;;;;;;8397961;28;19924;-68
2022/04/01 14:42:42;;;;;;;;;;;7.60;99.90;;;;;;8395518;28;20318;-68
2022/04/01 14:46:44;;;;;;;;;;;7.60;99.90;;;;;;8398542;28;20364;-68
2022/04/01 14:50:46;;;;;;;;;;;7.70;99.90;;;;;;8394439;28;19924;-68
2022/04/01 14:54:47;;;;;;;;;;;7.70;99.90;;;;;;8396750;28;19968;-68
2022/04/01 14:58:49;;;;;;;;;;;8.00;99.90;;;;;;8383888;28;19928;-68
2022/04/01 15:02:51;;;;;;;;;;;8.40;99.90;;;;;;8396472;28;20298;-68
2022/04/01 15:06:53;;;;;;;;;;;8.60;99.90;;;;;;8393169;28;20437;-68
2022/04/01 15:10:54;;;;;;;;;;;8.60;99.90;;;;;;8394023;28;19940;-68
2022/04/01 15:14:56;;;;;;;;;;;8.40;99.90;;;;;;8394697;28;19924;-68
2022/04/01 15:18:58;;;;;;;;;;;8.70;99.90;;;;;;8397205;28;19929;-68
2022/04/01 15:22:59;;;;;;;;;;;8.80;99.90;;;;;;8388164;28;19928;-68
2022/04/01 15:27:02;;;;;;;;;;;8.60;99.90;;;;;;8399987;28;20364;-68
2022/04/01 15:31:04;;;;;;;;;;;8.30;99.90;;;;;;8391315;28;20356;-68
2022/04/01 15:35:05;;;;;;;;;;;7.80;99.90;;;;;;8395732;28;19928;-68
2022/04/01 15:39:08;;;;;;;;;;;7.50;99.90;;;;;;8404099;28;19928;-68
2022/04/01 15:43:10;;;;;;;;;;;7.40;99.90;;;;;;8394743;28;19928;-68
2022/04/01 15:47:13;;;;;;;;;;;7.30;99.90;;;;;;8393690;28;19962;-68
2022/04/01 15:51:16;;;;;;;;;;;7.30;99.90;;;;;;8396036;28;19924;-68
2022/04/01 15:55:19;;;;;;;;;;;7.20;99.90;;;;;;8392767;28;19932;-68
2022/04/01 15:59:21;;;;;;;;;;;7.10;99.90;;;;;;8374889;28;20487;-68
2022/04/01 16:03:44;;;;;;;;;;;6.90;99.90;;;;;;8393953;28;19940;-68
2022/04/01 16:07:49;;;;;;;5.32;1.67;;;6.70;99.90;;;;;;8371301;28;19928;-68
2022/04/01 16:11:51;;;;;;;4.60;1.77;;;6.50;99.90;;;;;;8386222;28;20511;-68
2022/04/01 16:15:53;;;;;;;4.47;2.00;;;6.30;99.90;;;;;;8389125;28;20055;-68
2022/04/01 16:19:57;;;;;;;4.38;1.75;;;6.30;99.90;;;;;;8390070;28;20048;-68
2022/04/01 16:24:00;;;;;;;3.97;1.75;;;6.30;99.90;;;;;;8383352;28;20052;-68
2022/04/01 16:28:02;;;;;;;5.07;1.85;;;6.30;99.90;;;;;;8386180;28;20047;-68
2022/04/01 16:32:04;;;;;;;6.47;2.03;;;6.30;99.90;;;;;;8371074;28;20052;-68
2022/04/01 16:36:06;;;;;;;5.07;1.60;;;6.40;99.90;;;;;;8388676;28;20040;-68
2022/04/01 16:40:08;;;;;;;3.05;1.50;;;6.30;99.90;;;;;;8393515;28;20480;-68
2022/04/01 16:44:10;;;;;;;5.40;1.65;;;6.30;99.90;;;;;;8388120;28;20052;-68
2022/04/01 16:48:12;;;;;;;4.88;1.65;;;6.30;99.90;;;;;;8375892;28;20044;-68
2022/04/01 16:52:14;;;;;;;4.47;1.70;;;6.30;99.90;;;;;;8388633;28;20052;-68
2022/04/01 16:56:17;;;;;;;4.33;1.77;;;6.30;99.80;;;;;;8393918;28;20048;-68
2022/04/01 17:00:19;;;;;;;;;;;6.20;99.50;;;;;;8392481;28;20512;-68
2022/04/01 17:04:20;;;;;;;;;;;6.20;99.40;;;;;;8400270;28;20020;-68
2022/04/01 17:13:02;;;;;;;;;;;6.20;99.00;;;;;;8388346;28;20427;-68
2022/04/01 17:17:04;;;;;;;;;;;6.20;98.40;;;;;;8392449;28;19933;-68
2022/04/01 17:21:06;;;;;;;;;;;6.20;98.20;;;;;;8392825;28;19931;-68
2022/04/01 17:25:09;;;;;;;;;;;6.20;97.80;;;;;;8391599;28;19929;-68
2022/04/01 17:29:12;;;;;;;;;;;6.00;97.30;;;;;;8395180;28;19935;-68
2022/04/01 17:33:13;;;;;;;;;;;5.90;97.20;;;;;;8386039;28;19928;-68
2022/04/01 17:37:16;;;;;;;;;;;5.90;97.00;;;;;;8387869;28;20362;-68
2022/04/01 17:41:20;;;;;;;;;;;6.10;97.20;;;;;;8390670;28;19936;-68
2022/04/01 17:45:24;;;;;;;;;;;6.20;97.30;;;;;;8391370;28;19925;-68
2022/04/01 17:49:28;;;;;;;;;;;6.30;96.90;;;;;;8387051;28;19943;-68
2022/04/01 17:53:30;;;;;;;;;;;6.30;96.50;;;;;;8379867;28;19924;-68
2022/04/01 17:57:34;;;;;;;;;;;6.20;96.60;;;;;;8396433;28;20005;-68
2022/04/01 18:01:36;;;;;;;;;;;6.00;96.40;;;;;;8400455;28;19928;-68
2022/04/01 18:05:38;;;;;;;;;;;5.80;95.70;;;;;;8393209;28;20003;-68
2022/04/01 18:09:40;;;;;;;;;;;5.60;95.70;;;;;;8379594;28;19932;-68
2022/04/01 18:13:42;;;;;;;;;;;5.40;95.70;;;;;;8397086;28;19924;-68
2022/04/01 18:17:44;;;;;;;;;;;5.30;95.50;;;;;;8379217;28;19924;-68
2022/04/01 18:21:45;;;;;;;3.95;1.50;;;5.20;95.50;;;;;;8377416;28;19940;-68
2022/04/01 18:26:11;;;;;;;4.18;1.50;;;5.10;95.40;;;;;;8383314;28;20048;-68
2022/04/01 18:30:16;;;;;;;4.57;1.40;;;4.90;95.20;;;;;;8378533;28;20063;-68
2022/04/01 18:34:19;;;;;;;3.30;1.40;;;4.90;95.10;;;;;;8392495;28;20052;-68
2022/04/01 18:38:26;;;;;;;3.15;1.33;;;4.80;95.00;;;;;;8390410;28;21357;-68
2022/04/01 18:42:31;;;;;;;5.30;1.60;;;4.70;94.80;;;;;;8390359;28;20040;-68
2022/04/01 18:46:33;;;;;;;;;;;4.60;94.70;;;;;;8391565;28;20310;-68
2022/04/01 18:50:37;;;;;;;;;;;4.60;94.60;;;;;;8392340;28;20011;-68
2022/04/01 18:54:38;;;;;;;;;;;4.50;94.50;;;;;;8377702;28;20287;-68
2022/04/01 18:58:40;;;;;;;;;;;4.50;94.50;;;;;;8402683;28;20020;-68
2022/04/01 19:02:47;;;;;;;;;;;4.50;94.50;;;;;;8393549;28;19924;-68
2022/04/01 19:06:58;;;;;;;;;;;4.50;94.40;;;;;;8392142;28;19923;-68
2022/04/01 19:11:05;;;;;;;;;;;4.40;94.30;;;;;;8404213;28;19925;-68
2022/04/01 19:15:09;;;;;;;;;;;4.40;94.20;;;;;;8393245;28;20275;-68
2022/04/01 19:19:24;;;;;;;;;;;4.30;94.20;;;;;;8390961;28;19936;-68
2022/04/01 19:23:26;;;;;;;;;;;4.30;94.10;;;;;;8388717;28;19928;-68
2022/04/01 19:27:28;;;;;;;;;;;4.30;94.20;;;;;;8402981;28;19939;-68
2022/04/01 19:31:30;;;;;;;;;;;4.20;94.00;;;;;;8375041;28;20303;-68
2022/04/01 19:35:32;;;;;;;;;;;4.20;94.00;;;;;;8390953;28;19920;-68
2022/04/01 19:39:34;;;;;;;;;;;4.20;94.00;;;;;;8386285;28;20364;-68
2022/04/01 19:43:35;;;;;;;;;;;4.10;93.80;;;;;;8389673;28;19940;-68
2022/04/01 19:47:37;;;;;;;;;;;4.10;93.80;;;;;;8375501;28;19928;-68
2022/04/01 19:51:42;;;;;;;;;;;4.00;93.80;;;;;;8391389;28;19951;-68
2022/04/01 19:55:43;;;;;;;;;;;4.00;93.80;;;;;;8373084;28;19920;-68
2022/04/01 19:59:45;;;;;;;;;;;4.00;93.80;;;;;;8391226;28;19920;-68
2022/04/01 20:03:47;;;;;;;;;;;4.00;93.80;;;;;;8371923;28;19920;-68
2022/04/01 20:07:49;;;;;;;;;;;3.90;93.80;;;;;;8377977;28;19921;-68
2022/04/01 20:11:50;;;;;;;;;;;3.90;93.80;;;;;;8378081;28;19945;-68
2022/04/01 20:15:52;;;;;;;;;;;3.90;93.90;;;;;;8403882;28;19943;-68
2022/04/01 20:19:54;;;;;;;;;;;3.80;93.80;;;;;;8387926;28;19924;-68
2022/04/01 20:23:56;;;;;;;;;;;3.80;93.70;;;;;;8389799;28;19928;-68
2022/04/01 20:27:57;;;;;;;;;;;3.80;93.80;;;;;;8385866;28;19928;-68
2022/04/01 20:31:59;;;;;;;;;;;3.70;93.80;;;;;;8389199;28;19928;-68
2022/04/01 20:36:01;;;;;;;;;;;3.70;93.80;;;;;;8385686;28;19928;-68
2022/04/01 20:40:03;;;;;;;;;;;3.60;93.70;;;;;;8389227;28;20386;-68
2022/04/01 20:44:06;;;;;;;;;;;3.60;93.70;;;;;;8387585;28;19921;-68
2022/04/01 20:48:07;;;;;;;;;;;3.60;93.70;;;;;;8390922;28;19927;-68
2022/04/01 20:52:09;;;;;;;;;;;3.60;93.80;;;;;;8378082;28;20006;-68
2022/04/01 20:56:11;;;;;;;;;;;3.50;93.60;;;;;;8379516;28;19924;-68
2022/04/01 21:00:13;;;;;;;;;;;3.50;93.60;;;;;;8399984;28;19921;-68
2022/04/01 21:04:14;;;;;;;3.45;1.60;;;3.40;93.60;;;;;;8400121;28;19968;-68
2022/04/01 21:08:16;;;;;;;;;;;3.40;93.50;;;;;;8393531;28;19939;-68
2022/04/01 21:12:20;;;;;;;;;;;3.40;93.50;;;;;;8389818;28;20357;-68
2022/04/01 21:16:22;;;;;;;;;;;3.30;93.50;;;;;;8399279;28;19932;-68
2022/04/01 21:20:24;;;;;;;;;;;3.30;93.50;;;;;;8416327;28;19924;-68
2022/04/01 21:24:25;;;;;;;;;;;3.30;93.50;;;;;;8412687;28;20423;-68
2022/04/01 21:28:27;;;;;;;;;;;3.20;93.60;;;;;;8409854;28;20324;-68
2022/04/01 21:32:30;;;;;;;;;;;3.20;93.50;;;;;;8414914;28;19928;-68
2022/04/01 21:36:32;;;;;;;;;;;3.20;93.50;;;;;;8413856;28;19935;-68
2022/04/01 21:40:39;;;;;;;;;;;3.20;93.60;;;;;;8420204;28;19932;-68
2022/04/01 21:44:41;;;;;;;;;;;3.10;93.60;;;;;;8417609;28;20407;-68
2022/04/01 21:48:42;;;;;;;;;;;3.10;93.70;;;;;;8399962;28;19932;-68
2022/04/01 21:52:44;;;;;;;;;;;3.10;93.70;;;;;;8413922;28;20219;-69
2022/04/01 21:56:46;;;;;;;;;;;3.10;93.80;;;;;;8389200;28;19932;-68
2022/04/01 22:00:47;;;;;;;;;;;3.10;93.70;;;;;;8413684;28;19939;-68
2022/04/01 22:04:49;;;;;;;;;;;3.00;93.80;;;;;;8395712;28;19935;-68
2022/04/01 22:08:51;;;;;;;;;;;3.00;93.90;;;;;;8417784;28;19924;-68
2022/04/01 22:12:53;;;;;;;;;;;3.00;93.90;;;;;;8411120;28;19924;-68
2022/04/01 22:16:54;;;;;;;;;;;3.00;93.80;;;;;;8411496;28;19995;-68
2022/04/01 22:20:57;;;;;;;;;;;3.00;93.90;;;;;;8415187;28;20332;-68
2022/04/01 22:24:59;;;;;;;;;;;3.00;94.10;;;;;;8424104;28;19928;-68
2022/04/01 22:29:01;;;;;;;;;;;3.00;94.10;;;;;;8410274;28;19924;-68
2022/04/01 22:33:03;;;;;;;;;;;3.00;94.10;;;;;;8412489;28;20302;-68
2022/04/01 22:37:05;;;;;;;;;;;2.90;94.00;;;;;;8414227;28;19928;-68
2022/04/01 22:41:06;;;;;;;;;;;2.90;94.00;;;;;;8420807;28;19932;-68
2022/04/01 22:45:08;;;;;;;;;;;2.90;94.20;;;;;;8414928;28;19924;-68
2022/04/01 22:49:11;;;;;;;;;;;2.90;94.10;;;;;;8415026;28;20018;-68
2022/04/01 22:53:13;;;;;;;;;;;2.80;93.90;;;;;;8421569;28;19928;-68
2022/04/01 22:57:14;;;;;;;;;;;2.80;94.10;;;;;;8433775;28;20019;-68
2022/04/01 23:01:16;;;;;;;;;;;2.80;94.10;;;;;;8408094;28;19935;-68
2022/04/01 23:05:18;;;;;;;;;;;2.80;94.00;;;;;;8412682;28;19924;-68
2022/04/01 23:09:24;;;;;;;;;;;2.80;94.00;;;;;;8421654;28;19932;-67
2022/04/01 23:13:25;;;;;;;;;;;2.70;93.90;;;;;;8400973;28;19947;-68
2022/04/01 23:17:27;;;;;;;;;;;2.70;94.00;;;;;;8424894;28;19928;-68
2022/04/01 23:21:29;;;;;;;;;;;2.70;94.00;;;;;;8404684;28;19928;-68
2022/04/01 23:25:31;;;;;;;;;;;2.60;94.00;;;;;;8421942;28;19924;-67
2022/04/01 23:29:33;;;;;;;;;;;2.60;93.90;;;;;;8402537;28;19924;-68
2022/04/01 23:33:35;;;;;;;;;;;2.60;93.90;;;;;;8424347;28;19936;-68
2022/04/01 23:37:37;;;;;;;;;;;2.60;93.90;;;;;;8424048;28;19928;-68
2022/04/01 23:41:39;;;;;;;;;;;2.50;93.80;;;;;;8415738;28;19975;-68
2022/04/01 23:45:41;;;;;;;;;;;2.50;93.80;;;;;;8416964;28;19962;-68
2022/04/01 23:49:42;;;;;;;;;;;2.50;93.80;;;;;;8418790;28;19927;-68
2022/04/01 23:53:44;;;;;;;;;;;2.40;93.90;;;;;;8417734;28;19931;-68
2022/04/01 23:57:46;;;;;;;;;;;2.40;93.80;;;;;;8403922;28;19924;-68
